QXE2135 KSEA-KGEG
Flight info
| Callsign | QXE2135 |
|---|---|
| Flight time | 0h 37m |
| Altitude | 29000 |
| Route | MONTN2 SEA ZADON ZELAK ZIRAN ZOOMR ZOOMR2 |
| Aircraft | E75L/M-L/S |
Departure
| Time | 2026-05-06 00:08 |
|---|---|
| Airport | Seattle–Tacoma International Airport (KSEA) |
Arrival
| Time | 2026-05-06 00:45 |
|---|---|
| Airport | Spokane International Airport (KGEG) |
| Time | Latitude | Longitude | Altitude | Speed | Heading |
|---|---|---|---|---|---|
| 2026-05-05 23:26 | 47.44569 | -122.30471 | 397 ft | 0 kts | 90° |
| 2026-05-06 00:00 | 47.44569 | -122.30483 | 395 ft | 4 kts | 90° |
| 2026-05-06 00:00 | 47.44567 | -122.30523 | 398 ft | 4 kts | 69° |
| 2026-05-06 00:01 | 47.44552 | -122.30541 | 398 ft | 2 kts | 0° |
| 2026-05-06 00:03 | 47.44554 | -122.30541 | 398 ft | 2 kts | 1° |
| 2026-05-06 00:03 | 47.44577 | -122.30540 | 397 ft | 7 kts | 1° |
| 2026-05-06 00:03 | 47.44657 | -122.30579 | 400 ft | 18 kts | 338° |
| 2026-05-06 00:03 | 47.44779 | -122.30626 | 400 ft | 18 kts | 6° |
| 2026-05-06 00:04 | 47.44901 | -122.30627 | 406 ft | 17 kts | 0° |
| 2026-05-06 00:04 | 47.45014 | -122.30627 | 405 ft | 16 kts | 359° |
| 2026-05-06 00:04 | 47.45123 | -122.30626 | 413 ft | 15 kts | 2° |
| 2026-05-06 00:04 | 47.45224 | -122.30625 | 417 ft | 14 kts | 1° |
| 2026-05-06 00:05 | 47.45391 | -122.30624 | 422 ft | 13 kts | 360° |
| 2026-05-06 00:05 | 47.45498 | -122.30625 | 425 ft | 16 kts | 0° |
| 2026-05-06 00:05 | 47.45603 | -122.30621 | 427 ft | 14 kts | 359° |
| 2026-05-06 00:06 | 47.45708 | -122.30621 | 431 ft | 18 kts | 360° |
| 2026-05-06 00:06 | 47.45838 | -122.30620 | 436 ft | 19 kts | 0° |
| 2026-05-06 00:06 | 47.45972 | -122.30616 | 426 ft | 18 kts | 359° |
| 2026-05-06 00:06 | 47.46009 | -122.30725 | 435 ft | 14 kts | 270° |
| 2026-05-06 00:07 | 47.45953 | -122.30784 | 428 ft | 11 kts | 182° |
| 2026-05-06 00:07 | 47.45791 | -122.30786 | 425 ft | 58 kts | 180° |
| 2026-05-06 00:07 | 47.45082 | -122.30791 | 412 ft | 144 kts | 180° |
| 2026-05-06 00:07 | 47.43904 | -122.30805 | 990 ft | 175 kts | 181° |
| 2026-05-06 00:08 | 47.42697 | -122.30816 | 2221 ft | 183 kts | 180° |
| 2026-05-06 00:08 | 47.41336 | -122.30813 | 3040 ft | 218 kts | 183° |
| 2026-05-06 00:08 | 47.39815 | -122.30932 | 3576 ft | 226 kts | 182° |
| 2026-05-06 00:08 | 47.38168 | -122.30968 | 3910 ft | 245 kts | 181° |
| 2026-05-06 00:09 | 47.36489 | -122.30545 | 4826 ft | 243 kts | 153° |
| 2026-05-06 00:09 | 47.35261 | -122.28886 | 5767 ft | 244 kts | 120° |
| 2026-05-06 00:09 | 47.34868 | -122.26470 | 6540 ft | 247 kts | 86° |
| 2026-05-06 00:09 | 47.35143 | -122.23951 | 7270 ft | 250 kts | 78° |
| 2026-05-06 00:10 | 47.35591 | -122.21462 | 7953 ft | 253 kts | 70° |
| 2026-05-06 00:10 | 47.36266 | -122.19049 | 8622 ft | 256 kts | 65° |
| 2026-05-06 00:10 | 47.37058 | -122.16687 | 9293 ft | 258 kts | 62° |
| 2026-05-06 00:10 | 47.37915 | -122.14287 | 9728 ft | 272 kts | 61° |
| 2026-05-06 00:11 | 47.38902 | -122.11866 | 10072 ft | 286 kts | 56° |
| 2026-05-06 00:11 | 47.40053 | -122.09318 | 10394 ft | 302 kts | 56° |
| 2026-05-06 00:11 | 47.41239 | -122.06727 | 10751 ft | 314 kts | 56° |
| 2026-05-06 00:11 | 47.42476 | -122.04030 | 11338 ft | 318 kts | 56° |
| 2026-05-06 00:12 | 47.43719 | -122.01316 | 11952 ft | 321 kts | 56° |
| 2026-05-06 00:12 | 47.44975 | -121.98570 | 12578 ft | 324 kts | 56° |
| 2026-05-06 00:12 | 47.46246 | -121.95792 | 13198 ft | 328 kts | 56° |
| 2026-05-06 00:12 | 47.47530 | -121.92981 | 13862 ft | 332 kts | 56° |
| 2026-05-06 00:13 | 47.48871 | -121.90187 | 14543 ft | 334 kts | 53° |
| 2026-05-06 00:13 | 47.50161 | -121.87312 | 15203 ft | 337 kts | 58° |
| 2026-05-06 00:13 | 47.51446 | -121.84386 | 15854 ft | 341 kts | 56° |
| 2026-05-06 00:13 | 47.52772 | -121.81462 | 16508 ft | 344 kts | 56° |
| 2026-05-06 00:14 | 47.54113 | -121.78509 | 17130 ft | 347 kts | 56° |
| 2026-05-06 00:14 | 47.55415 | -121.75478 | 17741 ft | 351 kts | 64° |
| 2026-05-06 00:14 | 47.56066 | -121.72040 | 18346 ft | 354 kts | 84° |
| 2026-05-06 00:14 | 47.56116 | -121.68377 | 18942 ft | 360 kts | 89° |
| 2026-05-06 00:15 | 47.56108 | -121.64648 | 19577 ft | 364 kts | 91° |
| 2026-05-06 00:15 | 47.56063 | -121.60878 | 20255 ft | 368 kts | 91° |
| 2026-05-06 00:15 | 47.56013 | -121.57065 | 20909 ft | 372 kts | 91° |
| 2026-05-06 00:15 | 47.55960 | -121.53223 | 21611 ft | 374 kts | 91° |
| 2026-05-06 00:16 | 47.55906 | -121.49341 | 22156 ft | 380 kts | 91° |
| 2026-05-06 00:16 | 47.55850 | -121.45411 | 22699 ft | 384 kts | 91° |
| 2026-05-06 00:16 | 47.55792 | -121.41444 | 23275 ft | 387 kts | 91° |
| 2026-05-06 00:16 | 47.55732 | -121.37437 | 23806 ft | 391 kts | 91° |
| 2026-05-06 00:17 | 47.55670 | -121.33393 | 24314 ft | 395 kts | 91° |
| 2026-05-06 00:17 | 47.55606 | -121.29297 | 24802 ft | 399 kts | 91° |
| 2026-05-06 00:17 | 47.55540 | -121.25171 | 25285 ft | 403 kts | 91° |
| 2026-05-06 00:17 | 47.55471 | -121.21005 | 25758 ft | 406 kts | 91° |
| 2026-05-06 00:18 | 47.55397 | -121.16818 | 26203 ft | 409 kts | 91° |
| 2026-05-06 00:18 | 47.55321 | -121.12590 | 26639 ft | 412 kts | 91° |
| 2026-05-06 00:18 | 47.55244 | -121.08349 | 27165 ft | 413 kts | 91° |
| 2026-05-06 00:18 | 47.55164 | -121.04062 | 27513 ft | 417 kts | 91° |
| 2026-05-06 00:19 | 47.55083 | -120.99807 | 27830 ft | 421 kts | 91° |
| 2026-05-06 00:19 | 47.54999 | -120.95473 | 28303 ft | 421 kts | 91° |
| 2026-05-06 00:19 | 47.54913 | -120.91126 | 28605 ft | 426 kts | 91° |
| 2026-05-06 00:19 | 47.54825 | -120.86733 | 28878 ft | 425 kts | 92° |
| 2026-05-06 00:20 | 47.54736 | -120.82357 | 28948 ft | 427 kts | 92° |
| 2026-05-06 00:20 | 47.54551 | -120.73627 | 28998 ft | 421 kts | 92° |
| 2026-05-06 00:21 | 47.54362 | -120.64953 | 29005 ft | 423 kts | 92° |
| 2026-05-06 00:21 | 47.54166 | -120.56272 | 29002 ft | 420 kts | 92° |
| 2026-05-06 00:22 | 47.53966 | -120.47677 | 29002 ft | 421 kts | 92° |
| 2026-05-06 00:22 | 47.53757 | -120.39006 | 29005 ft | 423 kts | 92° |
| 2026-05-06 00:23 | 47.53540 | -120.30294 | 28994 ft | 421 kts | 92° |
| 2026-05-06 00:23 | 47.53319 | -120.21635 | 29010 ft | 425 kts | 92° |
| 2026-05-06 00:24 | 47.53089 | -120.12897 | 28998 ft | 424 kts | 92° |
| 2026-05-06 00:24 | 47.52892 | -120.05640 | 29005 ft | 425 kts | 92° |
| 2026-05-06 00:25 | 47.52650 | -119.96923 | 28999 ft | 422 kts | 92° |
| 2026-05-06 00:25 | 47.52403 | -119.88245 | 29001 ft | 422 kts | 92° |
| 2026-05-06 00:26 | 47.52149 | -119.79561 | 29003 ft | 422 kts | 92° |
| 2026-05-06 00:26 | 47.51890 | -119.70929 | 29000 ft | 421 kts | 92° |
| 2026-05-06 00:27 | 47.51623 | -119.62260 | 29003 ft | 422 kts | 92° |
| 2026-05-06 00:27 | 47.51349 | -119.53572 | 29001 ft | 423 kts | 92° |
| 2026-05-06 00:28 | 47.51070 | -119.44912 | 29003 ft | 422 kts | 92° |
| 2026-05-06 00:28 | 47.50783 | -119.36242 | 28980 ft | 422 kts | 93° |
| 2026-05-06 00:29 | 47.50491 | -119.27594 | 28889 ft | 433 kts | 93° |
| 2026-05-06 00:29 | 47.50210 | -119.19472 | 28613 ft | 437 kts | 93° |
| 2026-05-06 00:29 | 47.50054 | -119.15016 | 28085 ft | 431 kts | 93° |
| 2026-05-06 00:30 | 47.49897 | -119.10607 | 27555 ft | 425 kts | 93° |
| 2026-05-06 00:30 | 47.49741 | -119.06258 | 27027 ft | 421 kts | 93° |
| 2026-05-06 00:30 | 47.49585 | -119.01947 | 26502 ft | 418 kts | 93° |
| 2026-05-06 00:30 | 47.49428 | -118.97668 | 25979 ft | 415 kts | 93° |
| 2026-05-06 00:31 | 47.49271 | -118.93416 | 25454 ft | 412 kts | 93° |
| 2026-05-06 00:31 | 47.49113 | -118.89203 | 24930 ft | 409 kts | 93° |
| 2026-05-06 00:31 | 47.48956 | -118.85027 | 24406 ft | 405 kts | 93° |
| 2026-05-06 00:31 | 47.48798 | -118.80884 | 23881 ft | 402 kts | 93° |
| 2026-05-06 00:32 | 47.48640 | -118.76771 | 23357 ft | 399 kts | 93° |
| 2026-05-06 00:32 | 47.48481 | -118.72693 | 22833 ft | 396 kts | 93° |
| 2026-05-06 00:32 | 47.48323 | -118.68629 | 22305 ft | 393 kts | 93° |
| 2026-05-06 00:32 | 47.48193 | -118.64668 | 21783 ft | 389 kts | 89° |
| 2026-05-06 00:33 | 47.48718 | -118.60779 | 21247 ft | 386 kts | 67° |
| 2026-05-06 00:33 | 47.50073 | -118.57381 | 20734 ft | 383 kts | 54° |
| 2026-05-06 00:33 | 47.51666 | -118.54241 | 20222 ft | 380 kts | 52° |
| 2026-05-06 00:33 | 47.53305 | -118.51184 | 19704 ft | 377 kts | 51° |
| 2026-05-06 00:34 | 47.54949 | -118.48176 | 19186 ft | 374 kts | 51° |
| 2026-05-06 00:34 | 47.56590 | -118.45200 | 18660 ft | 372 kts | 50° |
| 2026-05-06 00:34 | 47.58222 | -118.42251 | 18138 ft | 369 kts | 50° |
| 2026-05-06 00:34 | 47.59844 | -118.39324 | 17609 ft | 366 kts | 50° |
| 2026-05-06 00:35 | 47.61456 | -118.36417 | 17087 ft | 363 kts | 50° |
| 2026-05-06 00:35 | 47.63054 | -118.33534 | 16555 ft | 360 kts | 50° |
| 2026-05-06 00:35 | 47.64616 | -118.30715 | 16040 ft | 357 kts | 50° |
| 2026-05-06 00:35 | 47.66135 | -118.27821 | 15503 ft | 354 kts | 58° |
| 2026-05-06 00:36 | 47.66967 | -118.24415 | 14966 ft | 352 kts | 82° |
| 2026-05-06 00:36 | 47.66816 | -118.20830 | 14441 ft | 349 kts | 106° |
| 2026-05-06 00:36 | 47.65857 | -118.17550 | 13938 ft | 346 kts | 120° |
| 2026-05-06 00:36 | 47.64398 | -118.14743 | 13415 ft | 339 kts | 132° |
| 2026-05-06 00:37 | 47.62836 | -118.12224 | 12881 ft | 323 kts | 132° |
| 2026-05-06 00:37 | 47.61406 | -118.09740 | 12340 ft | 311 kts | 130° |
| 2026-05-06 00:37 | 47.60035 | -118.07309 | 11799 ft | 303 kts | 130° |
| 2026-05-06 00:37 | 47.58720 | -118.04964 | 11266 ft | 296 kts | 130° |
| 2026-05-06 00:38 | 47.57412 | -118.02634 | 10734 ft | 294 kts | 130° |
| 2026-05-06 00:38 | 47.56105 | -118.00307 | 10125 ft | 294 kts | 130° |
| 2026-05-06 00:38 | 47.54783 | -117.97958 | 9495 ft | 291 kts | 130° |
| 2026-05-06 00:38 | 47.53492 | -117.95665 | 8869 ft | 288 kts | 130° |
| 2026-05-06 00:39 | 47.52215 | -117.93401 | 8244 ft | 285 kts | 130° |
| 2026-05-06 00:39 | 47.50952 | -117.91163 | 7620 ft | 282 kts | 130° |
| 2026-05-06 00:39 | 47.49713 | -117.88970 | 7015 ft | 279 kts | 130° |
| 2026-05-06 00:39 | 47.48482 | -117.86795 | 6508 ft | 272 kts | 130° |
| 2026-05-06 00:40 | 47.47279 | -117.84668 | 5997 ft | 266 kts | 130° |
| 2026-05-06 00:40 | 47.46118 | -117.82578 | 5598 ft | 257 kts | 124° |
| 2026-05-06 00:40 | 47.45527 | -117.80167 | 5318 ft | 247 kts | 92° |
| 2026-05-06 00:40 | 47.45894 | -117.77784 | 5043 ft | 236 kts | 59° |
| 2026-05-06 00:41 | 47.46961 | -117.76033 | 4838 ft | 223 kts | 40° |
| 2026-05-06 00:41 | 47.48064 | -117.74531 | 4821 ft | 207 kts | 45° |
| 2026-05-06 00:41 | 47.49001 | -117.73048 | 4813 ft | 195 kts | 46° |
| 2026-05-06 00:41 | 47.49955 | -117.71623 | 4803 ft | 195 kts | 44° |
| 2026-05-06 00:42 | 47.50919 | -117.70198 | 4779 ft | 196 kts | 45° |
| 2026-05-06 00:42 | 47.51875 | -117.68755 | 4742 ft | 196 kts | 45° |
| 2026-05-06 00:42 | 47.52833 | -117.67315 | 4679 ft | 197 kts | 45° |
| 2026-05-06 00:42 | 47.53795 | -117.65874 | 4445 ft | 195 kts | 45° |
| 2026-05-06 00:43 | 47.54719 | -117.64486 | 4164 ft | 183 kts | 45° |
| 2026-05-06 00:43 | 47.55601 | -117.63160 | 3916 ft | 180 kts | 45° |
| 2026-05-06 00:43 | 47.56484 | -117.61833 | 3702 ft | 181 kts | 45° |
| 2026-05-06 00:43 | 47.57363 | -117.60509 | 3514 ft | 179 kts | 45° |
| 2026-05-06 00:44 | 47.58198 | -117.59252 | 3243 ft | 164 kts | 45° |
| 2026-05-06 00:44 | 47.58964 | -117.58100 | 2992 ft | 151 kts | 45° |
| 2026-05-06 00:44 | 47.59690 | -117.56996 | 2796 ft | 150 kts | 45° |
| 2026-05-06 00:44 | 47.60427 | -117.55894 | 2592 ft | 151 kts | 45° |
| 2026-05-06 00:45 | 47.61159 | -117.54785 | 2398 ft | 150 kts | 45° |
| 2026-05-06 00:45 | 47.61793 | -117.53826 | 2374 ft | 94 kts | 43° |
| 2026-05-06 00:45 | 47.62133 | -117.53314 | 2372 ft | 60 kts | 41° |
| 2026-05-06 00:45 | 47.62464 | -117.53075 | 2373 ft | 39 kts | 15° |
| 2026-05-06 00:46 | 47.62514 | -117.53151 | 2373 ft | 11 kts | 228° |